sensor_id;sensor_type;location;lat;lon;timestamp;temperature;humidity
15543;DHT22;7873;52.230;12.856;2022-09-28T00:01:30;24.90;48.20
15543;DHT22;7873;52.230;12.856;2022-09-28T00:03:56;25.00;48.10
15543;DHT22;7873;52.230;12.856;2022-09-28T00:06:24;25.00;48.10
15543;DHT22;7873;52.230;12.856;2022-09-28T00:08:53;25.00;48.10
15543;DHT22;7873;52.230;12.856;2022-09-28T00:11:21;25.00;48.10
15543;DHT22;7873;52.230;12.856;2022-09-28T00:13:53;25.00;48.10
15543;DHT22;7873;52.230;12.856;2022-09-28T00:16:23;24.90;48.10
15543;DHT22;7873;52.230;12.856;2022-09-28T00:18:51;24.90;48.10
15543;DHT22;7873;52.230;12.856;2022-09-28T00:21:19;25.00;48.10
15543;DHT22;7873;52.230;12.856;2022-09-28T00:23:47;25.00;48.10
15543;DHT22;7873;52.230;12.856;2022-09-28T00:26:35;25.00;48.00
15543;DHT22;7873;52.230;12.856;2022-09-28T00:29:02;25.00;48.00
15543;DHT22;7873;52.230;12.856;2022-09-28T00:31:30;25.00;47.90
15543;DHT22;7873;52.230;12.856;2022-09-28T00:33:58;25.00;48.00
15543;DHT22;7873;52.230;12.856;2022-09-28T00:36:26;25.00;48.00
15543;DHT22;7873;52.230;12.856;2022-09-28T00:38:54;25.00;47.90
15543;DHT22;7873;52.230;12.856;2022-09-28T00:41:21;25.00;47.90
15543;DHT22;7873;52.230;12.856;2022-09-28T00:43:50;25.00;47.90
15543;DHT22;7873;52.230;12.856;2022-09-28T00:46:17;25.00;47.90
15543;DHT22;7873;52.230;12.856;2022-09-28T00:48:49;25.00;48.10
15543;DHT22;7873;52.230;12.856;2022-09-28T00:51:18;25.00;48.00
15543;DHT22;7873;52.230;12.856;2022-09-28T00:53:45;25.00;48.10
15543;DHT22;7873;52.230;12.856;2022-09-28T00:56:14;25.00;48.00
15543;DHT22;7873;52.230;12.856;2022-09-28T00:58:44;25.00;47.90
15543;DHT22;7873;52.230;12.856;2022-09-28T01:01:15;25.00;47.80
15543;DHT22;7873;52.230;12.856;2022-09-28T01:03:41;25.00;47.90
15543;DHT22;7873;52.230;12.856;2022-09-28T01:06:10;25.00;47.80
15543;DHT22;7873;52.230;12.856;2022-09-28T01:08:42;25.00;47.80
15543;DHT22;7873;52.230;12.856;2022-09-28T01:11:10;25.00;47.90
15543;DHT22;7873;52.230;12.856;2022-09-28T01:13:37;25.00;47.90
15543;DHT22;7873;52.230;12.856;2022-09-28T01:16:06;25.00;48.00
15543;DHT22;7873;52.230;12.856;2022-09-28T01:18:40;25.10;47.80
15543;DHT22;7873;52.230;12.856;2022-09-28T01:21:13;25.00;47.80
15543;DHT22;7873;52.230;12.856;2022-09-28T01:23:58;25.00;47.80
15543;DHT22;7873;52.230;12.856;2022-09-28T01:26:53;25.00;47.80
15543;DHT22;7873;52.230;12.856;2022-09-28T01:29:36;25.00;47.80
15543;DHT22;7873;52.230;12.856;2022-09-28T01:32:12;25.00;47.80
15543;DHT22;7873;52.230;12.856;2022-09-28T01:34:47;25.00;47.90
15543;DHT22;7873;52.230;12.856;2022-09-28T01:37:19;25.00;47.90
15543;DHT22;7873;52.230;12.856;2022-09-28T01:39:49;25.00;47.80
15543;DHT22;7873;52.230;12.856;2022-09-28T01:42:21;25.00;47.90
15543;DHT22;7873;52.230;12.856;2022-09-28T01:44:50;25.00;47.90
15543;DHT22;7873;52.230;12.856;2022-09-28T01:47:21;25.00;47.80
15543;DHT22;7873;52.230;12.856;2022-09-28T01:49:50;25.00;48.00
15543;DHT22;7873;52.230;12.856;2022-09-28T01:52:22;25.00;47.90
15543;DHT22;7873;52.230;12.856;2022-09-28T01:54:53;25.00;47.90
15543;DHT22;7873;52.230;12.856;2022-09-28T01:57:27;25.00;47.80
15543;DHT22;7873;52.230;12.856;2022-09-28T02:00:01;25.00;47.80
15543;DHT22;7873;52.230;12.856;2022-09-28T02:02:31;25.00;47.70
15543;DHT22;7873;52.230;12.856;2022-09-28T02:05:02;25.00;47.80
15543;DHT22;7873;52.230;12.856;2022-09-28T02:07:33;25.00;47.70
15543;DHT22;7873;52.230;12.856;2022-09-28T02:10:05;25.00;47.70
15543;DHT22;7873;52.230;12.856;2022-09-28T02:12:38;25.00;47.70
15543;DHT22;7873;52.230;12.856;2022-09-28T02:15:09;25.00;47.80
15543;DHT22;7873;52.230;12.856;2022-09-28T02:17:39;25.00;47.80
15543;DHT22;7873;52.230;12.856;2022-09-28T02:20:06;25.00;47.70
15543;DHT22;7873;52.230;12.856;2022-09-28T02:22:35;25.00;47.70
15543;DHT22;7873;52.230;12.856;2022-09-28T02:25:08;25.00;48.50
15543;DHT22;7873;52.230;12.856;2022-09-28T02:27:39;25.00;47.70
15543;DHT22;7873;52.230;12.856;2022-09-28T02:30:10;25.00;47.70
15543;DHT22;7873;52.230;12.856;2022-09-28T02:32:38;25.00;47.80
15543;DHT22;7873;52.230;12.856;2022-09-28T02:35:07;25.00;47.80
15543;DHT22;7873;52.230;12.856;2022-09-28T02:37:37;25.00;47.90
15543;DHT22;7873;52.230;12.856;2022-09-28T02:40:10;25.00;47.80
15543;DHT22;7873;52.230;12.856;2022-09-28T02:42:41;25.00;47.80
15543;DHT22;7873;52.230;12.856;2022-09-28T02:45:20;25.00;47.80
15543;DHT22;7873;52.230;12.856;2022-09-28T02:47:58;25.00;47.70
15543;DHT22;7873;52.230;12.856;2022-09-28T02:50:33;25.10;47.70
15543;DHT22;7873;52.230;12.856;2022-09-28T02:53:08;25.00;47.70
15543;DHT22;7873;52.230;12.856;2022-09-28T02:55:53;25.00;47.70
15543;DHT22;7873;52.230;12.856;2022-09-28T02:58:32;25.00;47.70
15543;DHT22;7873;52.230;12.856;2022-09-28T03:01:05;25.00;47.70
15543;DHT22;7873;52.230;12.856;2022-09-28T03:03:44;25.00;47.70
15543;DHT22;7873;52.230;12.856;2022-09-28T03:06:18;25.00;47.70
15543;DHT22;7873;52.230;12.856;2022-09-28T03:08:50;25.00;48.40
15543;DHT22;7873;52.230;12.856;2022-09-28T03:11:23;25.00;47.70
15543;DHT22;7873;52.230;12.856;2022-09-28T03:13:55;25.10;47.80
15543;DHT22;7873;52.230;12.856;2022-09-28T03:16:23;25.10;47.70
15543;DHT22;7873;52.230;12.856;2022-09-28T03:18:51;25.00;47.60
15543;DHT22;7873;52.230;12.856;2022-09-28T03:21:18;24.60;44.50
15543;DHT22;7873;52.230;12.856;2022-09-28T03:23:45;24.10;42.50
15543;DHT22;7873;52.230;12.856;2022-09-28T03:26:12;23.70;44.80
15543;DHT22;7873;52.230;12.856;2022-09-28T03:28:41;23.80;43.40
15543;DHT22;7873;52.230;12.856;2022-09-28T03:31:09;23.90;44.60
15543;DHT22;7873;52.230;12.856;2022-09-28T03:33:36;24.20;45.00
15543;DHT22;7873;52.230;12.856;2022-09-28T03:36:02;24.40;44.80
15543;DHT22;7873;52.230;12.856;2022-09-28T03:38:29;24.70;45.00
15543;DHT22;7873;52.230;12.856;2022-09-28T03:40:56;24.80;45.20
15543;DHT22;7873;52.230;12.856;2022-09-28T03:43:25;24.70;45.50
15543;DHT22;7873;52.230;12.856;2022-09-28T03:45:52;24.70;45.30
15543;DHT22;7873;52.230;12.856;2022-09-28T03:48:21;24.70;45.40
15543;DHT22;7873;52.230;12.856;2022-09-28T03:50:51;24.60;45.70
15543;DHT22;7873;52.230;12.856;2022-09-28T03:53:18;24.60;45.60
15543;DHT22;7873;52.230;12.856;2022-09-28T03:55:45;24.40;44.30
15543;DHT22;7873;52.230;12.856;2022-09-28T03:58:12;24.30;45.20
15543;DHT22;7873;52.230;12.856;2022-09-28T04:00:38;24.30;45.50
15543;DHT22;7873;52.230;12.856;2022-09-28T04:03:05;24.30;45.60
15543;DHT22;7873;52.230;12.856;2022-09-28T04:05:34;24.40;45.70
15543;DHT22;7873;52.230;12.856;2022-09-28T04:08:00;24.40;45.80
15543;DHT22;7873;52.230;12.856;2022-09-28T04:10:27;24.30;46.20
15543;DHT22;7873;52.230;12.856;2022-09-28T04:12:54;24.30;46.40
15543;DHT22;7873;52.230;12.856;2022-09-28T04:15:21;24.40;46.20
15543;DHT22;7873;52.230;12.856;2022-09-28T04:17:48;24.40;45.20
15543;DHT22;7873;52.230;12.856;2022-09-28T04:20:15;24.20;44.40
15543;DHT22;7873;52.230;12.856;2022-09-28T04:22:44;24.30;45.70
15543;DHT22;7873;52.230;12.856;2022-09-28T04:25:10;24.30;45.40
15543;DHT22;7873;52.230;12.856;2022-09-28T04:27:37;24.30;45.10
15543;DHT22;7873;52.230;12.856;2022-09-28T04:30:21;24.30;45.50
15543;DHT22;7873;52.230;12.856;2022-09-28T04:32:48;24.30;45.20
15543;DHT22;7873;52.230;12.856;2022-09-28T04:35:15;24.20;45.40
15543;DHT22;7873;52.230;12.856;2022-09-28T04:37:43;24.20;45.10
15543;DHT22;7873;52.230;12.856;2022-09-28T04:40:10;24.30;44.90
15543;DHT22;7873;52.230;12.856;2022-09-28T04:42:37;24.20;44.00
15543;DHT22;7873;52.230;12.856;2022-09-28T04:45:04;24.10;44.70
15543;DHT22;7873;52.230;12.856;2022-09-28T04:47:31;23.80;46.40
15543;DHT22;7873;52.230;12.856;2022-09-28T04:49:58;23.80;46.50
15543;DHT22;7873;52.230;12.856;2022-09-28T04:52:24;23.70;47.00
15543;DHT22;7873;52.230;12.856;2022-09-28T04:54:53;23.80;47.10
15543;DHT22;7873;52.230;12.856;2022-09-28T04:57:19;23.80;47.10
15543;DHT22;7873;52.230;12.856;2022-09-28T04:59:46;23.80;47.20
15543;DHT22;7873;52.230;12.856;2022-09-28T05:02:13;23.90;47.20
15543;DHT22;7873;52.230;12.856;2022-09-28T05:04:39;23.80;47.20
15543;DHT22;7873;52.230;12.856;2022-09-28T05:07:06;23.90;47.20
15543;DHT22;7873;52.230;12.856;2022-09-28T05:09:33;23.80;47.40
15543;DHT22;7873;52.230;12.856;2022-09-28T05:12:01;23.70;47.60
15543;DHT22;7873;52.230;12.856;2022-09-28T05:14:28;23.70;47.70
15543;DHT22;7873;52.230;12.856;2022-09-28T05:16:55;23.80;47.60
15543;DHT22;7873;52.230;12.856;2022-09-28T05:19:21;23.80;47.70
15543;DHT22;7873;52.230;12.856;2022-09-28T05:21:48;23.70;47.80
15543;DHT22;7873;52.230;12.856;2022-09-28T05:24:15;23.60;48.10
15543;DHT22;7873;52.230;12.856;2022-09-28T05:26:41;23.60;48.20
15543;DHT22;7873;52.230;12.856;2022-09-28T05:29:10;23.60;48.20
15543;DHT22;7873;52.230;12.856;2022-09-28T05:31:37;23.60;48.20
15543;DHT22;7873;52.230;12.856;2022-09-28T05:34:03;23.60;48.30
15543;DHT22;7873;52.230;12.856;2022-09-28T05:36:30;23.50;48.40
15543;DHT22;7873;52.230;12.856;2022-09-28T05:38:57;23.50;48.60
15543;DHT22;7873;52.230;12.856;2022-09-28T05:41:23;23.30;48.70
15543;DHT22;7873;52.230;12.856;2022-09-28T05:43:50;23.50;48.80
15543;DHT22;7873;52.230;12.856;2022-09-28T05:46:20;23.40;48.70
15543;DHT22;7873;52.230;12.856;2022-09-28T05:48:47;23.40;48.70
15543;DHT22;7873;52.230;12.856;2022-09-28T05:51:15;23.40;48.80
15543;DHT22;7873;52.230;12.856;2022-09-28T05:53:42;23.30;48.90
15543;DHT22;7873;52.230;12.856;2022-09-28T05:56:08;23.30;49.00
15543;DHT22;7873;52.230;12.856;2022-09-28T05:58:35;23.20;49.20
15543;DHT22;7873;52.230;12.856;2022-09-28T06:01:02;23.20;49.30
15543;DHT22;7873;52.230;12.856;2022-09-28T06:03:30;23.20;49.20
15543;DHT22;7873;52.230;12.856;2022-09-28T06:05:58;23.10;49.20
15543;DHT22;7873;52.230;12.856;2022-09-28T06:08:26;23.20;49.30
15543;DHT22;7873;52.230;12.856;2022-09-28T06:10:52;23.20;49.00
15543;DHT22;7873;52.230;12.856;2022-09-28T06:13:19;23.30;49.10
15543;DHT22;7873;52.230;12.856;2022-09-28T06:15:46;23.20;49.20
15543;DHT22;7873;52.230;12.856;2022-09-28T06:18:12;23.20;49.00
15543;DHT22;7873;52.230;12.856;2022-09-28T06:20:41;23.20;49.00
15543;DHT22;7873;52.230;12.856;2022-09-28T06:23:08;23.20;49.20
15543;DHT22;7873;52.230;12.856;2022-09-28T06:25:35;23.20;49.00
15543;DHT22;7873;52.230;12.856;2022-09-28T06:28:03;23.20;49.00
15543;DHT22;7873;52.230;12.856;2022-09-28T06:30:31;23.20;49.00
15543;DHT22;7873;52.230;12.856;2022-09-28T06:33:00;23.20;49.00
15543;DHT22;7873;52.230;12.856;2022-09-28T06:35:28;23.20;48.90
15543;DHT22;7873;52.230;12.856;2022-09-28T06:37:58;23.20;49.00
15543;DHT22;7873;52.230;12.856;2022-09-28T06:40:25;23.20;49.00
15543;DHT22;7873;52.230;12.856;2022-09-28T06:42:56;23.20;49.10
15543;DHT22;7873;52.230;12.856;2022-09-28T06:45:23;23.20;49.00
15543;DHT22;7873;52.230;12.856;2022-09-28T06:47:51;23.20;49.00
15543;DHT22;7873;52.230;12.856;2022-09-28T06:50:18;23.20;49.20
15543;DHT22;7873;52.230;12.856;2022-09-28T06:52:48;23.20;49.00
15543;DHT22;7873;52.230;12.856;2022-09-28T06:55:16;23.20;49.00
15543;DHT22;7873;52.230;12.856;2022-09-28T06:57:43;23.20;49.10
15543;DHT22;7873;52.230;12.856;2022-09-28T07:00:10;23.20;49.00
15543;DHT22;7873;52.230;12.856;2022-09-28T07:02:38;23.10;49.00
15543;DHT22;7873;52.230;12.856;2022-09-28T07:05:05;23.10;49.20
15543;DHT22;7873;52.230;12.856;2022-09-28T07:07:33;23.20;49.10
15543;DHT22;7873;52.230;12.856;2022-09-28T07:10:00;23.20;49.00
15543;DHT22;7873;52.230;12.856;2022-09-28T07:12:28;23.20;49.20
15543;DHT22;7873;52.230;12.856;2022-09-28T07:14:56;23.20;49.10
15543;DHT22;7873;52.230;12.856;2022-09-28T07:17:23;23.10;49.10
15543;DHT22;7873;52.230;12.856;2022-09-28T07:19:49;23.10;49.20
15543;DHT22;7873;52.230;12.856;2022-09-28T07:22:18;23.20;49.20
15543;DHT22;7873;52.230;12.856;2022-09-28T07:24:45;23.20;49.10
15543;DHT22;7873;52.230;12.856;2022-09-28T07:27:13;23.20;49.10
15543;DHT22;7873;52.230;12.856;2022-09-28T07:29:41;23.10;49.90
15543;DHT22;7873;52.230;12.856;2022-09-28T07:32:07;23.10;49.30
15543;DHT22;7873;52.230;12.856;2022-09-28T07:34:34;23.10;49.40
15543;DHT22;7873;52.230;12.856;2022-09-28T07:37:07;23.10;49.30
15543;DHT22;7873;52.230;12.856;2022-09-28T07:39:36;23.10;49.30
15543;DHT22;7873;52.230;12.856;2022-09-28T07:42:23;23.10;49.30
15543;DHT22;7873;52.230;12.856;2022-09-28T07:44:50;23.10;49.20
15543;DHT22;7873;52.230;12.856;2022-09-28T07:47:17;23.10;49.10
15543;DHT22;7873;52.230;12.856;2022-09-28T07:49:50;23.10;49.00
15543;DHT22;7873;52.230;12.856;2022-09-28T07:52:19;23.10;49.00
15543;DHT22;7873;52.230;12.856;2022-09-28T07:54:49;23.10;49.20
15543;DHT22;7873;52.230;12.856;2022-09-28T07:57:16;23.10;49.20
15543;DHT22;7873;52.230;12.856;2022-09-28T07:59:43;23.10;49.00
15543;DHT22;7873;52.230;12.856;2022-09-28T08:02:11;23.20;48.90
15543;DHT22;7873;52.230;12.856;2022-09-28T08:04:38;23.20;48.80
15543;DHT22;7873;52.230;12.856;2022-09-28T08:07:07;23.30;48.50
15543;DHT22;7873;52.230;12.856;2022-09-28T08:09:34;23.20;48.60
15543;DHT22;7873;52.230;12.856;2022-09-28T08:12:01;23.20;48.80
15543;DHT22;7873;52.230;12.856;2022-09-28T08:14:29;23.10;48.90
15543;DHT22;7873;52.230;12.856;2022-09-28T08:16:57;23.30;48.70
15543;DHT22;7873;52.230;12.856;2022-09-28T08:19:25;23.20;48.50
15543;DHT22;7873;52.230;12.856;2022-09-28T08:22:13;23.20;48.60
15543;DHT22;7873;52.230;12.856;2022-09-28T08:24:39;23.20;48.90
15543;DHT22;7873;52.230;12.856;2022-09-28T08:27:05;23.10;48.90
15543;DHT22;7873;52.230;12.856;2022-09-28T08:29:32;23.20;48.90
15543;DHT22;7873;52.230;12.856;2022-09-28T08:31:59;23.20;48.80
15543;DHT22;7873;52.230;12.856;2022-09-28T08:34:28;23.20;48.60
15543;DHT22;7873;52.230;12.856;2022-09-28T08:36:55;23.10;48.80
15543;DHT22;7873;52.230;12.856;2022-09-28T08:39:22;23.20;48.60
15543;DHT22;7873;52.230;12.856;2022-09-28T08:41:49;23.20;48.60
15543;DHT22;7873;52.230;12.856;2022-09-28T08:44:24;23.10;48.90
15543;DHT22;7873;52.230;12.856;2022-09-28T08:46:57;23.20;48.80
15543;DHT22;7873;52.230;12.856;2022-09-28T08:49:29;23.10;48.80
15543;DHT22;7873;52.230;12.856;2022-09-28T08:52:02;23.20;48.80
15543;DHT22;7873;52.230;12.856;2022-09-28T08:54:35;23.10;48.90
15543;DHT22;7873;52.230;12.856;2022-09-28T08:57:06;23.20;48.80
15543;DHT22;7873;52.230;12.856;2022-09-28T08:59:41;23.10;48.70
15543;DHT22;7873;52.230;12.856;2022-09-28T09:02:13;23.20;48.60
15543;DHT22;7873;52.230;12.856;2022-09-28T09:04:43;23.20;48.50
15543;DHT22;7873;52.230;12.856;2022-09-28T09:10:16;23.00;49.00
15543;DHT22;7873;52.230;12.856;2022-09-28T09:13:05;23.00;48.90
15543;DHT22;7873;52.230;12.856;2022-09-28T09:15:44;23.10;48.80
15543;DHT22;7873;52.230;12.856;2022-09-28T09:18:19;23.10;48.80
15543;DHT22;7873;52.230;12.856;2022-09-28T09:20:57;23.20;48.70
15543;DHT22;7873;52.230;12.856;2022-09-28T09:23:34;23.20;48.60
15543;DHT22;7873;52.230;12.856;2022-09-28T09:26:04;23.10;48.80
15543;DHT22;7873;52.230;12.856;2022-09-28T09:28:49;23.10;48.80
15543;DHT22;7873;52.230;12.856;2022-09-28T09:31:31;23.10;48.80
15543;DHT22;7873;52.230;12.856;2022-09-28T09:34:22;23.00;48.80
15543;DHT22;7873;52.230;12.856;2022-09-28T09:37:04;23.10;48.60
15543;DHT22;7873;52.230;12.856;2022-09-28T09:39:46;23.10;48.80
15543;DHT22;7873;52.230;12.856;2022-09-28T09:42:30;23.10;48.60
15543;DHT22;7873;52.230;12.856;2022-09-28T09:45:15;23.10;48.50
15543;DHT22;7873;52.230;12.856;2022-09-28T09:47:52;23.00;48.80
15543;DHT22;7873;52.230;12.856;2022-09-28T09:50:24;23.00;48.90
15543;DHT22;7873;52.230;12.856;2022-09-28T09:52:56;22.90;48.90
15543;DHT22;7873;52.230;12.856;2022-09-28T09:55:26;23.00;48.90
15543;DHT22;7873;52.230;12.856;2022-09-28T09:57:59;23.00;48.90
15543;DHT22;7873;52.230;12.856;2022-09-28T10:00:30;22.90;49.20
15543;DHT22;7873;52.230;12.856;2022-09-28T10:02:59;22.80;49.10
15543;DHT22;7873;52.230;12.856;2022-09-28T10:05:28;22.90;49.10
15543;DHT22;7873;52.230;12.856;2022-09-28T10:07:59;22.90;49.10
15543;DHT22;7873;52.230;12.856;2022-09-28T10:10:28;23.00;49.00
15543;DHT22;7873;52.230;12.856;2022-09-28T10:12:59;22.90;49.10
15543;DHT22;7873;52.230;12.856;2022-09-28T10:15:27;22.90;48.90
15543;DHT22;7873;52.230;12.856;2022-09-28T10:17:56;23.00;48.80
15543;DHT22;7873;52.230;12.856;2022-09-28T10:20:25;22.90;49.00
15543;DHT22;7873;52.230;12.856;2022-09-28T10:22:55;22.90;49.00
15543;DHT22;7873;52.230;12.856;2022-09-28T10:25:27;23.00;48.90
15543;DHT22;7873;52.230;12.856;2022-09-28T10:27:55;22.90;48.90
15543;DHT22;7873;52.230;12.856;2022-09-28T10:30:24;22.70;49.20
15543;DHT22;7873;52.230;12.856;2022-09-28T10:32:51;22.90;49.00
15543;DHT22;7873;52.230;12.856;2022-09-28T10:35:24;22.80;49.10
15543;DHT22;7873;52.230;12.856;2022-09-28T10:37:53;22.80;49.20
15543;DHT22;7873;52.230;12.856;2022-09-28T10:43:19;22.90;49.00
15543;DHT22;7873;52.230;12.856;2022-09-28T10:45:58;22.80;49.00
15543;DHT22;7873;52.230;12.856;2022-09-28T10:48:26;22.80;49.10
15543;DHT22;7873;52.230;12.856;2022-09-28T10:50:59;22.80;49.20
15543;DHT22;7873;52.230;12.856;2022-09-28T10:53:29;22.70;49.30
15543;DHT22;7873;52.230;12.856;2022-09-28T10:55:59;22.80;49.20
15543;DHT22;7873;52.230;12.856;2022-09-28T10:58:28;22.80;49.20
15543;DHT22;7873;52.230;12.856;2022-09-28T11:00:59;22.70;49.20
15543;DHT22;7873;52.230;12.856;2022-09-28T11:03:28;22.80;49.20
15543;DHT22;7873;52.230;12.856;2022-09-28T11:05:57;22.80;49.10
15543;DHT22;7873;52.230;12.856;2022-09-28T11:08:27;22.80;49.20
15543;DHT22;7873;52.230;12.856;2022-09-28T11:11:04;22.70;49.10
15543;DHT22;7873;52.230;12.856;2022-09-28T11:13:41;22.80;49.10
15543;DHT22;7873;52.230;12.856;2022-09-28T11:16:20;22.80;49.00
15543;DHT22;7873;52.230;12.856;2022-09-28T11:18:50;22.80;49.00
15543;DHT22;7873;52.230;12.856;2022-09-28T11:21:17;22.70;49.20
15543;DHT22;7873;52.230;12.856;2022-09-28T11:23:54;22.70;49.10
15543;DHT22;7873;52.230;12.856;2022-09-28T11:26:23;22.70;49.10
15543;DHT22;7873;52.230;12.856;2022-09-28T11:28:50;22.80;49.00
15543;DHT22;7873;52.230;12.856;2022-09-28T11:31:22;22.80;49.00
15543;DHT22;7873;52.230;12.856;2022-09-28T11:33:51;22.80;49.20
15543;DHT22;7873;52.230;12.856;2022-09-28T11:36:30;22.70;49.00
15543;DHT22;7873;52.230;12.856;2022-09-28T11:39:10;22.80;49.00
15543;DHT22;7873;52.230;12.856;2022-09-28T11:41:49;22.80;48.80
15543;DHT22;7873;52.230;12.856;2022-09-28T11:44:36;22.80;48.90
15543;DHT22;7873;52.230;12.856;2022-09-28T11:50:13;22.70;49.00
15543;DHT22;7873;52.230;12.856;2022-09-28T11:52:50;22.80;49.10
15543;DHT22;7873;52.230;12.856;2022-09-28T11:55:23;22.70;49.00
15543;DHT22;7873;52.230;12.856;2022-09-28T11:58:02;22.70;49.20
15543;DHT22;7873;52.230;12.856;2022-09-28T12:00:35;22.70;49.00
15543;DHT22;7873;52.230;12.856;2022-09-28T12:03:07;22.70;49.00
15543;DHT22;7873;52.230;12.856;2022-09-28T12:05:40;22.70;49.00
15543;DHT22;7873;52.230;12.856;2022-09-28T12:08:12;22.70;49.20
15543;DHT22;7873;52.230;12.856;2022-09-28T12:10:44;22.60;49.50
15543;DHT22;7873;52.230;12.856;2022-09-28T12:13:18;22.70;49.00
15543;DHT22;7873;52.230;12.856;2022-09-28T12:15:50;22.70;49.10
15543;DHT22;7873;52.230;12.856;2022-09-28T12:18:21;22.70;49.20
15543;DHT22;7873;52.230;12.856;2022-09-28T12:20:51;22.60;49.20
15543;DHT22;7873;52.230;12.856;2022-09-28T12:23:34;22.60;49.50
15543;DHT22;7873;52.230;12.856;2022-09-28T12:26:19;22.60;49.40
15543;DHT22;7873;52.230;12.856;2022-09-28T12:29:00;22.60;49.50
15543;DHT22;7873;52.230;12.856;2022-09-28T12:31:32;22.60;49.30
15543;DHT22;7873;52.230;12.856;2022-09-28T12:34:03;22.60;49.40
15543;DHT22;7873;52.230;12.856;2022-09-28T12:36:34;22.70;49.20
15543;DHT22;7873;52.230;12.856;2022-09-28T12:39:11;22.70;48.90
15543;DHT22;7873;52.230;12.856;2022-09-28T12:41:51;22.60;49.20
15543;DHT22;7873;52.230;12.856;2022-09-28T12:44:38;22.60;49.40
15543;DHT22;7873;52.230;12.856;2022-09-28T12:47:21;22.60;49.30
15543;DHT22;7873;52.230;12.856;2022-09-28T12:50:06;22.60;49.50
15543;DHT22;7873;52.230;12.856;2022-09-28T12:52:45;22.60;49.30
15543;DHT22;7873;52.230;12.856;2022-09-28T12:55:30;22.60;49.30
15543;DHT22;7873;52.230;12.856;2022-09-28T12:58:11;22.60;49.30
15543;DHT22;7873;52.230;12.856;2022-09-28T13:00:53;22.50;49.70
15543;DHT22;7873;52.230;12.856;2022-09-28T13:03:35;22.50;49.60
15543;DHT22;7873;52.230;12.856;2022-09-28T13:06:17;22.50;49.50
15543;DHT22;7873;52.230;12.856;2022-09-28T13:08:54;22.50;49.60
15543;DHT22;7873;52.230;12.856;2022-09-28T13:11:34;22.60;49.50
15543;DHT22;7873;52.230;12.856;2022-09-28T13:14:14;22.50;49.50
15543;DHT22;7873;52.230;12.856;2022-09-28T13:17:03;22.50;49.60
15543;DHT22;7873;52.230;12.856;2022-09-28T13:19:41;22.40;49.90
15543;DHT22;7873;52.230;12.856;2022-09-28T13:22:20;22.40;49.70
15543;DHT22;7873;52.230;12.856;2022-09-28T13:24:55;22.50;49.50
15543;DHT22;7873;52.230;12.856;2022-09-28T13:27:28;22.40;49.70
15543;DHT22;7873;52.230;12.856;2022-09-28T13:29:58;22.50;49.50
15543;DHT22;7873;52.230;12.856;2022-09-28T13:32:29;22.60;49.40
15543;DHT22;7873;52.230;12.856;2022-09-28T13:34:57;22.50;49.60
15543;DHT22;7873;52.230;12.856;2022-09-28T13:37:26;22.50;49.60
15543;DHT22;7873;52.230;12.856;2022-09-28T13:39:54;22.50;49.70
15543;DHT22;7873;52.230;12.856;2022-09-28T13:42:27;22.50;49.60
15543;DHT22;7873;52.230;12.856;2022-09-28T13:48:16;22.50;49.50
15543;DHT22;7873;52.230;12.856;2022-09-28T13:50:51;22.50;49.60
15543;DHT22;7873;52.230;12.856;2022-09-28T13:53:31;22.50;49.60
15543;DHT22;7873;52.230;12.856;2022-09-28T13:56:11;22.60;49.50
15543;DHT22;7873;52.230;12.856;2022-09-28T13:58:51;22.50;49.50
15543;DHT22;7873;52.230;12.856;2022-09-28T14:01:24;22.50;49.50
15543;DHT22;7873;52.230;12.856;2022-09-28T14:04:08;22.40;49.70
15543;DHT22;7873;52.230;12.856;2022-09-28T14:06:40;22.50;49.50
15543;DHT22;7873;52.230;12.856;2022-09-28T14:14:54;22.40;49.20
15543;DHT22;7873;52.230;12.856;2022-09-28T14:17:43;22.50;49.10
15543;DHT22;7873;52.230;12.856;2022-09-28T14:20:20;22.60;48.80
15543;DHT22;7873;52.230;12.856;2022-09-28T14:26:05;22.70;48.80
15543;DHT22;7873;52.230;12.856;2022-09-28T14:28:48;22.50;49.70
15543;DHT22;7873;52.230;12.856;2022-09-28T14:31:23;22.60;49.60
15543;DHT22;7873;52.230;12.856;2022-09-28T14:33:55;22.70;49.70
15543;DHT22;7873;52.230;12.856;2022-09-28T14:36:26;22.80;49.10
15543;DHT22;7873;52.230;12.856;2022-09-28T14:39:18;22.80;49.20
15543;DHT22;7873;52.230;12.856;2022-09-28T14:42:08;22.80;49.10
15543;DHT22;7873;52.230;12.856;2022-09-28T14:47:42;22.80;49.60
15543;DHT22;7873;52.230;12.856;2022-09-28T14:50:28;22.80;50.20
15543;DHT22;7873;52.230;12.856;2022-09-28T14:53:02;22.90;50.60
15543;DHT22;7873;52.230;12.856;2022-09-28T14:55:30;23.00;50.40
15543;DHT22;7873;52.230;12.856;2022-09-28T14:57:59;23.10;51.00
15543;DHT22;7873;52.230;12.856;2022-09-28T15:00:28;23.10;50.90
15543;DHT22;7873;52.230;12.856;2022-09-28T15:02:58;23.10;51.20
15543;DHT22;7873;52.230;12.856;2022-09-28T15:05:28;23.20;50.70
15543;DHT22;7873;52.230;12.856;2022-09-28T15:07:59;23.10;51.00
15543;DHT22;7873;52.230;12.856;2022-09-28T15:10:28;23.10;50.90
15543;DHT22;7873;52.230;12.856;2022-09-28T15:12:57;23.20;50.90
15543;DHT22;7873;52.230;12.856;2022-09-28T15:15:28;23.10;51.00
15543;DHT22;7873;52.230;12.856;2022-09-28T15:18:01;23.10;51.10
15543;DHT22;7873;52.230;12.856;2022-09-28T15:20:37;23.10;51.00
15543;DHT22;7873;52.230;12.856;2022-09-28T15:23:21;23.20;50.80
15543;DHT22;7873;52.230;12.856;2022-09-28T15:25:50;23.20;50.20
15543;DHT22;7873;52.230;12.856;2022-09-28T15:28:18;23.00;50.80
15543;DHT22;7873;52.230;12.856;2022-09-28T15:30:46;23.00;50.70
15543;DHT22;7873;52.230;12.856;2022-09-28T15:33:22;23.00;51.00
15543;DHT22;7873;52.230;12.856;2022-09-28T15:36:07;23.00;51.40
15543;DHT22;7873;52.230;12.856;2022-09-28T15:38:43;23.00;51.50
15543;DHT22;7873;52.230;12.856;2022-09-28T15:41:16;23.00;51.60
15543;DHT22;7873;52.230;12.856;2022-09-28T15:43:43;23.10;51.70
15543;DHT22;7873;52.230;12.856;2022-09-28T15:46:31;23.10;51.60
15543;DHT22;7873;52.230;12.856;2022-09-28T15:48:59;23.10;51.60
15543;DHT22;7873;52.230;12.856;2022-09-28T15:51:27;23.20;51.70
15543;DHT22;7873;52.230;12.856;2022-09-28T15:53:57;23.20;51.80
15543;DHT22;7873;52.230;12.856;2022-09-28T15:56:28;23.20;51.60
15543;DHT22;7873;52.230;12.856;2022-09-28T15:59:08;23.30;51.40
15543;DHT22;7873;52.230;12.856;2022-09-28T16:01:41;23.20;51.50
15543;DHT22;7873;52.230;12.856;2022-09-28T16:07:16;23.20;51.60
15543;DHT22;7873;52.230;12.856;2022-09-28T16:09:59;23.20;51.80
15543;DHT22;7873;52.230;12.856;2022-09-28T16:12:39;23.20;52.00
15543;DHT22;7873;52.230;12.856;2022-09-28T16:15:12;23.30;52.10
15543;DHT22;7873;52.230;12.856;2022-09-28T16:17:48;23.40;52.00
15543;DHT22;7873;52.230;12.856;2022-09-28T16:20:17;23.40;52.10
15543;DHT22;7873;52.230;12.856;2022-09-28T16:22:48;23.50;52.80
15543;DHT22;7873;52.230;12.856;2022-09-28T16:25:19;23.50;52.80